createdAt,value
2018-06-19T00:01:20.693Z,58.59
2018-06-19T00:03:49.741Z,58.51
2018-06-19T00:06:19.004Z,58.14
2018-06-19T00:08:47.703Z,58.55
2018-06-19T00:11:16.903Z,59.05
2018-06-19T00:13:46.324Z,58.72
2018-06-19T00:16:16.148Z,58.91
2018-06-19T00:18:49.942Z,59.38
2018-06-19T00:21:26.508Z,59.10
2018-06-19T00:23:55.165Z,59.46
2018-06-19T00:26:24.430Z,59.83
2018-06-19T00:28:54.282Z,59.63
2018-06-19T00:31:23.365Z,60.39
2018-06-19T00:33:52.009Z,60.52
2018-06-19T00:36:23.537Z,60.52
2018-06-19T00:38:53.771Z,60.87
2018-06-19T00:41:23.033Z,61.19
2018-06-19T00:43:52.558Z,60.98
2018-06-19T00:46:23.878Z,61.24
2018-06-19T00:48:52.490Z,60.66
2018-06-19T00:51:21.396Z,61.19
2018-06-19T00:53:50.293Z,61.59
2018-06-19T00:56:30.785Z,61.01
2018-06-19T00:58:59.681Z,60.87
2018-06-19T01:01:29.259Z,60.79
2018-06-19T01:03:58.851Z,61.35
2018-06-19T01:06:28.675Z,60.92
2018-06-19T01:08:57.303Z,61.38
2018-06-19T01:11:25.922Z,61.25
2018-06-19T01:13:54.870Z,61.27
2018-06-19T01:16:23.864Z,61.32
2018-06-19T01:18:52.481Z,61.70
2018-06-19T01:21:21.779Z,62.11
2018-06-19T01:23:50.985Z,62.03
2018-06-19T01:26:20.930Z,61.80
2018-06-19T01:28:50.904Z,62.65
2018-06-19T01:31:19.900Z,63.24
2018-06-19T01:33:48.507Z,62.32
2018-06-19T01:36:17.529Z,63.01
2018-06-19T01:38:46.413Z,62.29
2018-06-19T01:41:14.980Z,63.43
2018-06-19T01:43:43.897Z,63.59
2018-06-19T01:46:12.854Z,63.29
2018-06-19T01:48:41.477Z,63.94
2018-06-19T01:51:10.673Z,63.81
2018-06-19T01:53:39.666Z,64.21
2018-06-19T01:56:08.309Z,64.42
2018-06-19T01:58:37.244Z,63.64
2018-06-19T02:01:07.857Z,64.75
2018-06-19T02:03:36.548Z,64.29
2018-06-19T02:06:07.192Z,64.59
2018-06-19T02:08:36.197Z,65.06
2018-06-19T02:11:05.118Z,65.78
2018-06-19T02:13:35.521Z,65.84
2018-06-19T02:16:04.861Z,64.69
2018-06-19T02:18:35.447Z,64.96
2018-06-19T02:21:04.432Z,64.90
2018-06-19T02:23:33.457Z,65.72
2018-06-19T02:26:03.682Z,65.40
2018-06-19T02:28:34.678Z,64.67
2018-06-19T02:31:04.940Z,65.87
2018-06-19T02:33:35.154Z,66.01
2018-06-19T02:36:06.187Z,65.78
2018-06-19T02:38:34.869Z,65.94
2018-06-19T02:41:05.522Z,66.30
2018-06-19T02:43:36.118Z,66.40
2018-06-19T02:46:05.082Z,66.34
2018-06-19T02:48:34.112Z,65.38
2018-06-19T02:51:02.761Z,66.49
2018-06-19T02:53:31.662Z,66.45
2018-06-19T02:56:00.533Z,66.79
2018-06-19T02:58:29.224Z,66.24
2018-06-19T03:00:58.158Z,65.88
2018-06-19T03:03:28.615Z,65.20
2018-06-19T03:05:58.029Z,65.24
2018-06-19T03:08:27.160Z,65.38
2018-06-19T03:10:58.197Z,66.17
2018-06-19T03:13:29.042Z,64.99
2018-06-19T03:15:58.483Z,66.22
2018-06-19T03:18:27.822Z,66.72
2018-06-19T03:20:56.794Z,66.89
2018-06-19T03:23:25.988Z,67.18
2018-06-19T03:25:54.605Z,67.40
2018-06-19T03:28:23.298Z,68.14
2018-06-19T03:30:52.036Z,67.21
2018-06-19T03:33:21.611Z,67.06
2018-06-19T03:35:50.638Z,66.71
2018-06-19T03:38:19.547Z,67.27
2018-06-19T03:40:48.161Z,67.77
2018-06-19T03:43:17.155Z,68.79
2018-06-19T03:45:45.865Z,68.77
2018-06-19T03:48:14.801Z,69.52
2018-06-19T03:50:43.487Z,70.08
2018-06-19T03:53:12.386Z,69.71
2018-06-19T03:55:41.268Z,70.05
2018-06-19T03:58:09.899Z,70.93
2018-06-19T04:00:38.592Z,71.06
2018-06-19T04:03:07.898Z,70.53
2018-06-19T04:05:36.525Z,71.36
2018-06-19T04:08:05.223Z,71.32
2018-06-19T04:10:34.043Z,71.94
2018-06-19T04:13:03.096Z,71.84
2018-06-19T04:15:32.107Z,72.23
2018-06-19T04:18:00.723Z,71.83
2018-06-19T04:20:29.789Z,72.19
2018-06-19T04:22:59.236Z,71.88
2018-06-19T04:25:27.894Z,71.91
2018-06-19T04:27:56.503Z,72.07
2018-06-19T04:30:25.661Z,71.29
2018-06-19T04:32:54.582Z,72.11
2018-06-19T04:35:25.110Z,72.22
2018-06-19T04:37:54.180Z,72.88
2018-06-19T04:40:23.411Z,72.31
2018-06-19T04:42:52.082Z,72.57
2018-06-19T04:45:20.708Z,72.14
2018-06-19T04:47:51.845Z,72.47
2018-06-19T04:50:21.691Z,72.27
2018-06-19T04:52:51.294Z,71.62
2018-06-19T04:55:19.946Z,71.52
2018-06-19T04:57:48.876Z,71.90
2018-06-19T05:00:17.867Z,72.46
2018-06-19T05:02:46.785Z,71.47
2018-06-19T05:05:15.445Z,71.81
2018-06-19T05:07:44.168Z,71.82
2018-06-19T05:10:12.871Z,71.54
2018-06-19T05:12:41.869Z,70.98
2018-06-19T05:15:12.367Z,70.70
2018-06-19T05:17:41.789Z,70.77
2018-06-19T05:20:11.070Z,70.54
2018-06-19T05:22:39.694Z,69.38
2018-06-19T05:25:08.747Z,69.57
2018-06-19T05:27:37.954Z,69.04
2018-06-19T05:30:07.036Z,68.85
2018-06-19T05:32:36.003Z,68.84
2018-06-19T05:35:04.789Z,68.51
2018-06-19T05:37:33.715Z,69.24
2018-06-19T05:40:02.408Z,68.09
2018-06-19T05:42:31.412Z,68.24
2018-06-19T05:45:00.309Z,68.49
2018-06-19T05:47:29.013Z,68.17
2018-06-19T05:49:57.886Z,68.58
2018-06-19T05:52:27.098Z,68.06
2018-06-19T05:54:56.279Z,67.07
2018-06-19T05:57:25.189Z,67.27
2018-06-19T05:59:53.803Z,67.53
2018-06-19T06:02:22.801Z,67.37
2018-06-19T06:04:51.712Z,64.78
2018-06-19T06:07:21.307Z,65.39
2018-06-19T06:09:50.368Z,64.28
2018-06-19T06:12:19.304Z,63.91
2018-06-19T06:14:47.922Z,65.17
2018-06-19T06:17:16.595Z,65.29
2018-06-19T06:19:47.051Z,64.92
2018-06-19T06:22:16.875Z,63.69
2018-06-19T06:24:46.204Z,64.21
2018-06-19T06:27:15.633Z,64.21
2018-06-19T06:29:44.254Z,63.32
2018-06-19T06:32:12.869Z,61.30
2018-06-19T06:34:42.072Z,60.73
2018-06-19T06:37:10.859Z,60.73
2018-06-19T06:39:39.472Z,61.90
2018-06-19T06:42:08.169Z,64.94
2018-06-19T06:44:36.864Z,66.16
2018-06-19T06:47:05.783Z,63.81
2018-06-19T06:49:34.552Z,62.31
2018-06-19T06:52:03.592Z,61.20
2018-06-19T06:54:32.278Z,62.70
2018-06-19T06:57:02.140Z,60.41
2018-06-19T06:59:32.455Z,59.65
2018-06-19T07:02:01.087Z,59.48
2018-06-19T07:04:31.607Z,59.34
2018-06-19T07:07:00.555Z,58.82
2018-06-19T07:09:29.165Z,58.31
2018-06-19T07:11:57.845Z,58.34
2018-06-19T07:14:27.228Z,58.15
2018-06-19T07:16:55.815Z,58.40
2018-06-19T07:19:24.529Z,57.01
2018-06-19T07:21:53.666Z,54.33
2018-06-19T07:24:22.249Z,52.62
2018-06-19T07:26:51.191Z,54.67
2018-06-19T07:29:19.871Z,52.55
2018-06-19T07:31:48.856Z,53.51
2018-06-19T07:34:17.444Z,55.01
2018-06-19T07:36:46.125Z,52.27
2018-06-19T07:39:15.274Z,52.96
2018-06-19T07:41:44.319Z,53.55
2018-06-19T07:44:13.464Z,52.82
2018-06-19T07:46:42.094Z,52.39
2018-06-19T07:49:11.051Z,53.48
2018-06-19T07:51:39.924Z,52.34
2018-06-19T07:54:08.613Z,51.63
2018-06-19T07:56:37.209Z,51.59
2018-06-19T07:59:06.137Z,49.56
2018-06-19T08:01:35.102Z,49.52
2018-06-19T08:04:03.994Z,47.31
2018-06-19T08:06:32.980Z,48.48
2018-06-19T08:09:01.794Z,46.66
2018-06-19T08:11:30.973Z,49.31
2018-06-19T08:13:59.670Z,48.38
2018-06-19T08:16:28.361Z,44.36
2018-06-19T08:18:56.967Z,45.28
2018-06-19T08:21:25.934Z,45.10
2018-06-19T08:23:54.559Z,46.45
2018-06-19T08:26:23.159Z,48.13
2018-06-19T08:28:51.824Z,46.65
2018-06-19T08:31:20.774Z,45.03
2018-06-19T08:33:50.007Z,43.28
2018-06-19T08:36:18.933Z,44.13
2018-06-19T08:38:47.590Z,45.01
2018-06-19T08:41:16.200Z,44.97
2018-06-19T08:43:44.786Z,44.33
2018-06-19T08:46:13.559Z,43.98
2018-06-19T08:48:42.349Z,43.17
2018-06-19T08:51:11.494Z,42.38
2018-06-19T08:53:40.652Z,43.88
2018-06-19T08:56:09.714Z,44.54
2018-06-19T08:58:38.333Z,43.74
2018-06-19T09:01:07.278Z,44.82
2018-06-19T09:03:35.941Z,44.76
2018-06-19T09:06:04.649Z,43.19
2018-06-19T09:08:33.548Z,43.07
2018-06-19T09:11:02.438Z,42.68
2018-06-19T09:13:31.133Z,43.28
2018-06-19T09:16:00.316Z,42.57
2018-06-19T09:18:29.021Z,43.19
2018-06-19T09:20:57.653Z,44.04
2018-06-19T09:23:26.540Z,44.70
2018-06-19T09:25:55.221Z,42.98
2018-06-19T09:28:24.206Z,41.65
2018-06-19T09:30:52.867Z,43.06
2018-06-19T09:33:21.528Z,42.23
2018-06-19T09:35:50.453Z,42.34
2018-06-19T09:38:19.126Z,43.57
2018-06-19T09:40:47.898Z,44.46
2018-06-19T09:43:17.429Z,45.13
2018-06-19T09:45:46.192Z,45.03
2018-06-19T09:48:15.690Z,47.02
2018-06-19T09:50:46.644Z,44.66
2018-06-19T09:53:15.408Z,45.33
2018-06-19T09:55:44.087Z,44.46
2018-06-19T09:58:12.765Z,44.22
2018-06-19T10:00:42.322Z,47.51
2018-06-19T10:03:11.012Z,44.90
2018-06-19T10:05:40.813Z,46.88
2018-06-19T10:08:11.560Z,45.28
2018-06-19T10:10:40.555Z,45.61
2018-06-19T10:13:09.174Z,46.20
2018-06-19T10:15:37.831Z,45.12
2018-06-19T10:18:06.512Z,44.79
2018-06-19T10:20:35.173Z,45.62
2018-06-19T10:23:04.225Z,46.37
2018-06-19T10:25:32.850Z,47.93
2018-06-19T10:28:02.079Z,46.61
2018-06-19T10:30:31.015Z,46.91
2018-06-19T10:32:59.962Z,46.41
2018-06-19T10:35:28.925Z,47.08
2018-06-19T10:37:57.591Z,47.38
2018-06-19T10:40:26.591Z,46.88
2018-06-19T10:42:55.508Z,46.98
2018-06-19T10:45:24.195Z,46.30
2018-06-19T10:47:52.851Z,44.83
2018-06-19T10:50:21.528Z,45.66
2018-06-19T10:52:50.885Z,45.54
2018-06-19T10:55:19.786Z,44.29
2018-06-19T10:57:48.662Z,46.19
2018-06-19T11:00:17.375Z,46.76
2018-06-19T11:02:46.440Z,45.77
2018-06-19T11:05:15.357Z,46.20
2018-06-19T11:07:43.976Z,43.29
2018-06-19T11:10:12.602Z,43.80
2018-06-19T11:12:41.220Z,43.70
2018-06-19T11:15:09.832Z,44.68
2018-06-19T11:17:38.778Z,43.91
2018-06-19T11:20:07.422Z,42.95
2018-06-19T11:22:36.401Z,42.44
2018-06-19T11:25:05.363Z,43.43
2018-06-19T11:27:34.252Z,44.01
2018-06-19T11:30:02.868Z,44.45
2018-06-19T11:32:32.478Z,45.36
2018-06-19T11:35:01.399Z,44.43
2018-06-19T11:37:31.661Z,45.31
2018-06-19T11:40:00.555Z,44.84
2018-06-19T11:42:29.164Z,44.99
2018-06-19T11:44:57.835Z,45.09
2018-06-19T11:47:27.127Z,45.75
2018-06-19T11:49:55.763Z,44.95
2018-06-19T11:52:24.663Z,47.53
2018-06-19T11:54:54.438Z,44.33
2018-06-19T11:57:23.132Z,44.88
2018-06-19T11:59:51.846Z,44.38
2018-06-19T12:02:20.889Z,43.52
2018-06-19T12:04:49.544Z,42.25
2018-06-19T12:07:18.592Z,42.51
2018-06-19T12:09:47.270Z,42.85
2018-06-19T12:12:15.965Z,40.83
2018-06-19T12:14:45.850Z,39.73
2018-06-19T12:17:15.903Z,38.73
2018-06-19T12:19:45.114Z,37.88
2018-06-19T12:22:13.764Z,37.08
2018-06-19T12:24:42.496Z,37.42
2018-06-19T12:27:11.149Z,36.31
2018-06-19T12:29:40.321Z,41.48
2018-06-19T12:32:09.274Z,35.85
2018-06-19T12:34:38.317Z,36.12
2018-06-19T12:37:07.299Z,35.75
2018-06-19T12:39:35.950Z,34.16
2018-06-19T12:42:04.717Z,34.85
2018-06-19T12:44:33.429Z,37.78
2018-06-19T12:47:02.515Z,40.26
2018-06-19T12:49:42.233Z,39.51
2018-06-19T12:52:22.042Z,36.31
2018-06-19T12:55:31.357Z,33.06
2018-06-19T12:58:00.405Z,33.64
2018-06-19T13:00:29.065Z,37.82
2018-06-19T13:03:08.799Z,36.67
2018-06-19T13:06:40.899Z,29.94
2018-06-19T13:09:09.878Z,30.42
2018-06-19T13:11:38.693Z,32.52
2018-06-19T13:14:18.661Z,33.15
2018-06-19T13:16:58.318Z,36.65
2018-06-19T13:19:38.241Z,38.10
2018-06-19T13:22:06.927Z,34.99
2018-06-19T13:24:35.666Z,33.67
2018-06-19T13:27:04.616Z,35.09
2018-06-19T13:29:49.179Z,29.98
2018-06-19T13:32:17.895Z,29.23
2018-06-19T13:34:46.617Z,34.58
2018-06-19T13:37:15.502Z,36.79
2018-06-19T13:39:44.764Z,38.76
2018-06-19T13:43:28.237Z,39.79
2018-06-19T13:45:56.825Z,43.15
2018-06-19T13:48:25.535Z,43.17
2018-06-19T13:50:54.197Z,43.38
2018-06-19T13:53:22.907Z,44.50
2018-06-19T13:56:11.564Z,45.71
2018-06-19T13:58:40.555Z,45.33
2018-06-19T14:01:09.765Z,45.24
2018-06-19T14:03:38.677Z,46.16
2018-06-19T14:06:07.451Z,46.24
2018-06-19T14:08:46.513Z,45.86
2018-06-19T14:11:26.257Z,46.79
2018-06-19T14:13:55.007Z,46.56
2018-06-19T14:16:23.811Z,47.54
2018-06-19T14:18:52.523Z,46.56
2018-06-19T14:21:21.194Z,46.90
2018-06-19T14:23:50.049Z,47.58
2018-06-19T14:26:18.725Z,48.11
2018-06-19T14:28:47.637Z,48.79
2018-06-19T14:31:16.213Z,47.75
2018-06-19T14:33:45.313Z,47.82
2018-06-19T14:36:13.913Z,47.63
2018-06-19T14:38:42.596Z,48.47
2018-06-19T14:41:11.204Z,48.67
2018-06-19T14:43:40.267Z,48.80
2018-06-19T14:46:09.203Z,49.63
2018-06-19T14:48:37.915Z,49.40
2018-06-19T14:51:06.569Z,49.60
2018-06-19T14:53:35.193Z,49.98
2018-06-19T14:56:03.881Z,50.57
2018-06-19T14:58:32.546Z,49.37
2018-06-19T15:01:01.605Z,50.37
2018-06-19T15:03:30.230Z,50.57
2018-06-19T15:05:59.179Z,50.42
2018-06-19T15:08:28.099Z,50.62
2018-06-19T15:10:57.299Z,50.19
2018-06-19T15:13:26.499Z,50.17
2018-06-19T15:15:55.232Z,50.67
2018-06-19T15:18:23.960Z,50.61
2018-06-19T15:20:52.569Z,50.41
2018-06-19T15:23:21.255Z,50.86
2018-06-19T15:25:50.298Z,51.14
2018-06-19T15:28:18.951Z,51.02
2018-06-19T15:30:47.946Z,51.88
2018-06-19T15:33:16.987Z,50.76
2018-06-19T15:35:45.670Z,51.59
2018-06-19T15:38:14.340Z,51.79
2018-06-19T15:40:44.597Z,51.29
2018-06-19T15:43:17.943Z,51.52
2018-06-19T15:45:49.230Z,51.26
2018-06-19T15:48:20.351Z,51.39
2018-06-19T15:50:51.009Z,51.38
2018-06-19T15:56:02.891Z,51.34
2018-06-19T15:58:31.971Z,51.21
2018-06-19T16:01:00.738Z,50.82
2018-06-19T16:03:33.565Z,51.29
2018-06-19T16:06:07.353Z,51.04
2018-06-19T16:08:36.036Z,50.17
2018-06-19T16:11:05.643Z,51.41
2018-06-19T16:13:35.026Z,49.83
2018-06-19T16:16:03.745Z,50.17
2018-06-19T16:18:32.799Z,49.85
2018-06-19T16:21:01.842Z,49.95
2018-06-19T16:23:30.587Z,50.80
2018-06-19T16:25:59.615Z,50.65
2018-06-19T16:28:29.010Z,49.47
2018-06-19T16:30:57.877Z,49.80
2018-06-19T16:33:26.696Z,49.27
2018-06-19T16:35:55.427Z,50.51
2018-06-19T16:38:24.136Z,49.62
2018-06-19T16:40:53.140Z,50.76
2018-06-19T16:43:22.181Z,50.96
2018-06-19T16:45:51.378Z,48.94
2018-06-19T16:48:20.373Z,48.78
2018-06-19T16:50:49.380Z,49.24
2018-06-19T16:53:18.314Z,49.32
2018-06-19T16:55:47.359Z,50.21
2018-06-19T16:58:16.077Z,50.38
2018-06-19T17:00:44.949Z,49.74
2018-06-19T17:03:13.562Z,50.73
2018-06-19T17:05:42.226Z,49.86
2018-06-19T17:08:11.267Z,51.33
2018-06-19T17:10:40.313Z,50.41
2018-06-19T17:13:09.271Z,51.50
2018-06-19T17:15:37.949Z,50.79
2018-06-19T17:18:06.841Z,50.87
2018-06-19T17:20:35.547Z,50.90
2018-06-19T17:23:04.260Z,50.61
2018-06-19T17:25:33.294Z,50.59
2018-06-19T17:28:02.877Z,50.21
2018-06-19T17:30:31.561Z,50.17
2018-06-19T17:33:00.283Z,50.73
2018-06-19T17:35:29.199Z,50.87
2018-06-19T17:37:57.880Z,50.92
2018-06-19T17:40:26.859Z,51.53
2018-06-19T17:42:55.541Z,51.14
2018-06-19T17:45:24.634Z,51.72
2018-06-19T17:47:53.959Z,52.47
2018-06-19T17:50:27.639Z,52.37
2018-06-19T17:52:56.273Z,53.02
2018-06-19T17:55:25.074Z,52.88
2018-06-19T17:57:53.802Z,53.13
2018-06-19T18:00:22.613Z,53.59
2018-06-19T18:02:51.602Z,53.47
2018-06-19T18:05:23.494Z,52.71
2018-06-19T18:07:52.754Z,53.73
2018-06-19T18:10:22.493Z,54.00
2018-06-19T18:12:55.934Z,53.93
2018-06-19T18:15:24.997Z,53.37
2018-06-19T18:17:56.710Z,53.95
2018-06-19T18:20:29.627Z,54.21
2018-06-19T18:23:01.009Z,54.44
2018-06-19T18:25:31.323Z,54.41
2018-06-19T18:28:00.196Z,55.28
2018-06-19T18:30:31.636Z,54.99
2018-06-19T18:33:00.474Z,54.95
2018-06-19T18:35:29.331Z,54.69
2018-06-19T18:37:59.109Z,55.62
2018-06-19T18:40:34.104Z,55.31
2018-06-19T18:43:04.151Z,54.92
2018-06-19T18:45:33.282Z,55.13
2018-06-19T18:48:02.182Z,54.81
2018-06-19T18:50:33.455Z,55.09
2018-06-19T18:53:02.176Z,54.68
2018-06-19T18:55:33.160Z,54.34
2018-06-19T18:58:02.183Z,54.88
2018-06-19T19:00:32.685Z,55.72
2018-06-19T19:03:01.651Z,55.44
2018-06-19T19:05:33.622Z,54.54
2018-06-19T19:08:04.454Z,54.61
2018-06-19T19:10:40.146Z,54.53
2018-06-19T19:13:11.109Z,54.23
2018-06-19T19:15:45.150Z,54.50
2018-06-19T19:18:19.954Z,54.56
2018-06-19T19:20:51.673Z,55.70
2018-06-19T19:23:21.409Z,55.17
2018-06-19T19:25:52.997Z,56.09
2018-06-19T19:28:29.654Z,56.10
2018-06-19T19:30:59.486Z,56.18
2018-06-19T19:33:28.511Z,56.25
2018-06-19T19:35:57.112Z,56.38
2018-06-19T19:38:31.465Z,56.03
2018-06-19T19:41:00.491Z,56.17
2018-06-19T19:43:29.588Z,56.30
2018-06-19T19:45:58.834Z,57.24
2018-06-19T19:48:32.915Z,57.22
2018-06-19T19:51:01.962Z,57.14
2018-06-19T19:53:31.206Z,56.90
2018-06-19T19:56:04.889Z,57.25
2018-06-19T19:58:38.696Z,57.39
2018-06-19T20:01:07.473Z,57.04
2018-06-19T20:03:36.186Z,57.72
2018-06-19T20:06:05.342Z,58.17
2018-06-19T20:08:34.106Z,57.84
2018-06-19T20:11:03.562Z,58.08
2018-06-19T20:13:32.546Z,58.00
2018-06-19T20:16:01.271Z,58.88
2018-06-19T20:18:30.289Z,58.66
2018-06-19T20:20:59.017Z,59.51
2018-06-19T20:23:27.633Z,59.02
2018-06-19T20:25:56.496Z,59.97
2018-06-19T20:28:26.145Z,60.01
2018-06-19T20:30:54.829Z,59.33
2018-06-19T20:33:23.551Z,59.55
2018-06-19T20:35:52.289Z,59.23
2018-06-19T20:38:21.059Z,59.59
2018-06-19T20:40:49.709Z,60.42
2018-06-19T20:43:18.396Z,60.50
2018-06-19T20:45:47.359Z,59.84
2018-06-19T20:48:16.322Z,59.58
2018-06-19T20:50:45.035Z,59.38
2018-06-19T20:53:13.687Z,59.84
2018-06-19T20:55:42.579Z,59.74
2018-06-19T20:58:11.235Z,59.69
2018-06-19T21:00:40.266Z,60.38
2018-06-19T21:03:09.817Z,60.25
2018-06-19T21:05:38.824Z,59.85
2018-06-19T21:08:08.808Z,59.91
2018-06-19T21:10:37.841Z,60.23
2018-06-19T21:13:06.553Z,60.74
2018-06-19T21:15:35.498Z,60.50
2018-06-19T21:18:04.153Z,60.05
2018-06-19T21:20:32.980Z,60.36
2018-06-19T21:23:01.636Z,60.49
2018-06-19T21:25:30.581Z,60.92
2018-06-19T21:27:59.538Z,60.88
2018-06-19T21:30:28.125Z,60.95
2018-06-19T21:32:57.751Z,60.94
2018-06-19T21:35:26.369Z,61.35
2018-06-19T21:37:55.074Z,61.49
2018-06-19T21:40:24.324Z,61.01
2018-06-19T21:42:52.939Z,61.07
2018-06-19T21:45:21.606Z,61.82
2018-06-19T21:47:50.232Z,61.56
2018-06-19T21:50:18.834Z,61.84
2018-06-19T21:52:47.837Z,62.24
2018-06-19T21:55:16.421Z,62.17
2018-06-19T21:57:45.041Z,62.31
2018-06-19T22:00:14.036Z,62.32
2018-06-19T22:02:43.416Z,62.18
2018-06-19T22:05:12.010Z,62.71
2018-06-19T22:07:40.602Z,62.38
2018-06-19T22:10:09.543Z,62.38
2018-06-19T22:12:38.397Z,62.23
2018-06-19T22:15:07.012Z,63.04
2018-06-19T22:17:35.898Z,63.28
2018-06-19T22:20:04.560Z,62.62
2018-06-19T22:22:34.268Z,62.92
2018-06-19T22:25:03.125Z,62.79
2018-06-19T22:27:31.745Z,63.48
2018-06-19T22:30:00.595Z,63.25
2018-06-19T22:32:29.173Z,63.43
2018-06-19T22:34:58.000Z,63.34
2018-06-19T22:37:27.748Z,63.98
2018-06-19T22:39:56.695Z,64.06
2018-06-19T22:42:25.306Z,63.87
2018-06-19T22:44:53.936Z,63.50
2018-06-19T22:47:24.334Z,64.09
2018-06-19T22:49:53.553Z,64.06
2018-06-19T22:52:23.704Z,64.20
2018-06-19T22:54:54.567Z,64.74
2018-06-19T22:57:23.464Z,65.05
2018-06-19T22:59:52.879Z,65.33
2018-06-19T23:02:22.401Z,64.81
2018-06-19T23:04:52.374Z,64.71
2018-06-19T23:07:22.786Z,64.51
2018-06-19T23:09:52.811Z,64.58
2018-06-19T23:12:21.720Z,64.60
2018-06-19T23:14:50.305Z,65.25
2018-06-19T23:17:19.504Z,64.46
2018-06-19T23:19:48.092Z,65.34
2018-06-19T23:22:16.691Z,65.26
2018-06-19T23:24:45.601Z,64.88
2018-06-19T23:27:14.861Z,65.15
2018-06-19T23:29:43.480Z,64.39
2018-06-19T23:32:12.464Z,64.97
2018-06-19T23:34:41.086Z,64.99
2018-06-19T23:37:10.047Z,65.63
2018-06-19T23:39:38.680Z,64.76
2018-06-19T23:42:07.362Z,64.90
2018-06-19T23:44:35.966Z,65.71
2018-06-19T23:47:04.605Z,65.96
2018-06-19T23:49:33.315Z,65.51
2018-06-19T23:52:01.913Z,66.34
2018-06-19T23:54:30.801Z,66.41
2018-06-19T23:56:59.396Z,66.07
2018-06-19T23:59:28.644Z,66.32
